createdAt,value
2019-05-03T00:01:32.413Z,100.00
2019-05-03T00:04:15.779Z,100.00
2019-05-03T00:07:04.728Z,100.00
2019-05-03T00:09:53.642Z,100.00
2019-05-03T00:12:42.476Z,100.00
2019-05-03T00:15:52.196Z,100.00
2019-05-03T00:18:42.195Z,100.00
2019-05-03T00:21:32.674Z,100.00
2019-05-03T00:24:22.699Z,100.00
2019-05-03T00:27:12.908Z,100.00
2019-05-03T00:30:02.789Z,100.00
2019-05-03T00:32:52.460Z,100.00
2019-05-03T00:36:02.386Z,100.00
2019-05-03T00:41:52.108Z,100.00
2019-05-03T00:44:42.185Z,100.00
2019-05-03T00:47:32.841Z,100.00
2019-05-03T00:53:31.987Z,100.00
2019-05-03T00:56:21.563Z,100.00
2019-05-03T00:59:12.726Z,100.00
2019-05-03T01:02:02.727Z,100.00
2019-05-03T01:04:46.055Z,100.00
2019-05-03T01:07:34.903Z,100.00
2019-05-03T01:10:23.756Z,100.00
2019-05-03T01:13:12.689Z,100.00
2019-05-03T01:16:22.506Z,100.00
2019-05-03T01:19:12.097Z,100.00
2019-05-03T01:22:02.073Z,100.00
2019-05-03T01:24:51.874Z,100.00
2019-05-03T01:27:42.726Z,100.00
2019-05-03T01:30:32.180Z,100.00
2019-05-03T01:33:22.617Z,100.00
2019-05-03T01:36:12.025Z,100.00
2019-05-03T01:39:02.247Z,100.00
2019-05-03T01:41:51.950Z,100.00
2019-05-03T01:44:42.745Z,100.00
2019-05-03T01:47:52.648Z,100.00
2019-05-03T01:51:02.756Z,100.00
2019-05-03T01:53:52.373Z,100.00
2019-05-03T01:56:55.345Z,100.00
2019-05-03T01:59:32.559Z,100.00
2019-05-03T02:02:41.984Z,100.00
2019-05-03T02:05:24.192Z,100.00
2019-05-03T02:11:09.022Z,100.00
2019-05-03T02:13:57.871Z,100.00
2019-05-03T02:16:46.703Z,100.00
2019-05-03T02:19:35.546Z,100.00
2019-05-03T02:22:24.370Z,100.00
2019-05-03T02:25:13.359Z,100.00
2019-05-03T02:28:02.206Z,100.00
2019-05-03T02:30:53.286Z,100.00
2019-05-03T02:33:43.409Z,100.00
2019-05-03T02:36:33.717Z,100.00
2019-05-03T02:39:23.138Z,100.00
2019-05-03T02:42:12.101Z,100.00
2019-05-03T02:48:16.607Z,100.00
2019-05-03T02:51:06.541Z,100.00
2019-05-03T02:53:57.261Z,100.00
2019-05-03T02:56:46.884Z,100.00
2019-05-03T02:59:35.731Z,100.00
2019-05-03T03:02:26.383Z,100.00
2019-05-03T03:05:08.224Z,100.00
2019-05-03T03:11:11.815Z,100.00
2019-05-03T03:24:25.620Z,100.00
2019-05-03T03:27:36.076Z,100.00
2019-05-03T03:30:48.729Z,100.00
2019-05-03T03:33:40.082Z,100.00
2019-05-03T03:39:41.841Z,100.00
2019-05-03T03:49:15.488Z,100.00
2019-05-03T03:52:06.038Z,100.00
2019-05-03T03:58:10.594Z,100.00
2019-05-03T04:00:59.401Z,100.00
2019-05-03T04:03:41.803Z,100.00
2019-05-03T04:06:26.901Z,100.00
2019-05-03T04:09:16.209Z,100.00
2019-05-03T04:21:39.141Z,100.00
2019-05-03T04:27:45.343Z,100.00
2019-05-03T04:30:36.167Z,100.00
2019-05-03T04:33:26.976Z,100.00
2019-05-03T04:36:15.916Z,100.00
2019-05-03T04:39:26.402Z,100.00
2019-05-03T04:42:16.596Z,100.00
2019-05-03T04:45:26.768Z,100.00
2019-05-03T04:48:16.225Z,100.00
2019-05-03T04:51:06.422Z,100.00
2019-05-03T04:56:51.011Z,100.00
2019-05-03T04:59:39.844Z,100.00
2019-05-03T05:02:28.700Z,100.00
2019-05-03T05:05:17.588Z,100.00
2019-05-03T05:08:06.511Z,100.00
2019-05-03T05:10:55.996Z,100.00
2019-05-03T05:13:45.957Z,100.00
2019-05-03T05:16:35.651Z,100.00
2019-05-03T05:22:39.954Z,100.00
2019-05-03T05:25:47.809Z,100.00
2019-05-03T05:28:55.682Z,100.00
2019-05-03T05:31:44.711Z,100.00
2019-05-03T05:34:34.951Z,100.00
2019-05-03T05:37:24.989Z,100.00
2019-05-03T05:43:44.700Z,100.00
2019-05-03T05:50:02.123Z,100.00
2019-05-03T05:52:50.943Z,100.00
2019-05-03T05:55:58.819Z,100.00
2019-05-03T05:59:06.668Z,100.00
2019-05-03T06:04:55.407Z,100.00
2019-05-03T06:07:38.472Z,100.00
2019-05-03T06:10:27.084Z,100.00
2019-05-03T06:13:34.947Z,100.00
2019-05-03T06:16:42.810Z,100.00
2019-05-03T06:19:50.767Z,100.00
2019-05-03T06:22:58.624Z,100.00
2019-05-03T06:25:47.468Z,100.00
2019-05-03T06:28:36.293Z,100.00
2019-05-03T06:31:44.655Z,100.00
2019-05-03T06:34:35.342Z,98.01
2019-05-03T06:43:34.906Z,92.64
2019-05-03T06:46:45.556Z,89.91
2019-05-03T06:49:34.673Z,86.48
2019-05-03T06:52:27.663Z,87.71
2019-05-03T06:55:14.657Z,88.95
2019-05-03T06:58:05.149Z,84.96
2019-05-03T07:01:14.880Z,84.27
2019-05-03T07:07:30.778Z,82.13
2019-05-03T07:10:38.678Z,79.05
2019-05-03T07:13:27.555Z,76.73
2019-05-03T07:16:16.392Z,71.12
2019-05-03T07:19:05.224Z,75.52
2019-05-03T07:21:54.627Z,74.81
2019-05-03T07:24:45.549Z,73.84
2019-05-03T07:27:35.272Z,72.10
2019-05-03T07:30:24.895Z,70.06
2019-05-03T07:33:34.715Z,68.78
2019-05-03T07:36:27.579Z,63.93
2019-05-03T07:39:14.968Z,67.22
2019-05-03T07:42:05.423Z,65.01
2019-05-03T07:44:55.964Z,69.52
2019-05-03T07:47:45.250Z,69.15
2019-05-03T07:53:50.362Z,59.28
2019-05-03T07:59:39.082Z,66.95
2019-05-03T08:02:27.989Z,64.33
2019-05-03T08:05:16.924Z,66.83
2019-05-03T08:07:59.163Z,65.33
2019-05-03T08:10:47.981Z,64.34
2019-05-03T08:13:36.838Z,63.43
2019-05-03T08:16:25.667Z,62.86
2019-05-03T08:19:15.205Z,63.62
2019-05-03T08:22:05.209Z,62.01
2019-05-03T08:24:55.545Z,58.97
2019-05-03T08:27:44.699Z,60.53
2019-05-03T08:30:54.268Z,57.58
2019-05-03T08:34:02.245Z,59.25
2019-05-03T08:37:10.157Z,60.36
2019-05-03T08:39:59.140Z,59.19
2019-05-03T08:42:48.006Z,58.86
2019-05-03T08:45:36.846Z,57.61
2019-05-03T08:48:25.734Z,57.35
2019-05-03T08:51:14.958Z,57.73
2019-05-03T08:54:05.143Z,56.16
2019-05-03T08:56:55.672Z,57.05
2019-05-03T08:59:44.741Z,55.82
2019-05-03T09:02:34.579Z,56.92
2019-05-03T09:05:25.065Z,53.56
2019-05-03T09:08:07.503Z,55.76
2019-05-03T09:13:51.845Z,53.05
2019-05-03T09:16:40.667Z,53.08
2019-05-03T09:19:29.507Z,54.22
2019-05-03T09:22:18.331Z,55.77
2019-05-03T09:25:07.246Z,56.31
2019-05-03T09:27:56.064Z,54.75
2019-05-03T09:30:45.053Z,52.95
2019-05-03T09:33:35.688Z,49.45
2019-05-03T09:36:25.385Z,51.59
2019-05-03T09:39:15.172Z,48.78
2019-05-03T09:42:04.691Z,49.98
2019-05-03T09:44:55.591Z,47.50
2019-05-03T09:47:45.460Z,44.90
2019-05-03T09:50:35.909Z,46.76
2019-05-03T09:56:52.922Z,51.84
2019-05-03T09:59:35.055Z,57.88
2019-05-03T10:02:24.980Z,53.41
2019-05-03T10:05:15.594Z,47.95
2019-05-03T10:07:57.825Z,45.08
2019-05-03T10:11:05.778Z,42.39
2019-05-03T10:13:56.416Z,39.23
2019-05-03T10:19:54.845Z,37.60
2019-05-03T10:22:43.687Z,39.36
2019-05-03T10:25:32.568Z,39.28
2019-05-03T10:28:21.401Z,39.84
2019-05-03T10:31:10.257Z,36.99
2019-05-03T10:34:18.186Z,39.13
2019-05-03T10:42:58.462Z,43.12
2019-05-03T10:45:47.317Z,42.82
2019-05-03T10:48:36.177Z,40.49
2019-05-03T10:54:35.779Z,39.41
2019-05-03T11:00:49.713Z,35.98
2019-05-03T11:03:25.350Z,35.84
2019-05-03T11:06:14.822Z,40.60
2019-05-03T11:08:59.355Z,42.24
2019-05-03T11:11:48.262Z,44.67
2019-05-03T11:14:37.144Z,47.94
2019-05-03T11:17:25.994Z,47.21
2019-05-03T11:20:35.726Z,48.17
2019-05-03T11:23:25.191Z,46.27
2019-05-03T11:26:15.178Z,43.07
2019-05-03T11:29:05.190Z,40.53
2019-05-03T11:32:14.889Z,37.81
2019-05-03T11:35:44.682Z,38.13
2019-05-03T11:44:44.676Z,41.04
2019-05-03T11:47:34.826Z,43.81
2019-05-03T11:50:25.495Z,43.14
2019-05-03T11:53:15.504Z,42.77
2019-05-03T11:56:05.538Z,42.35
2019-05-03T11:58:55.114Z,40.19
2019-05-03T12:02:04.701Z,40.89
2019-05-03T12:04:55.239Z,37.09
2019-05-03T12:07:45.488Z,40.35
2019-05-03T12:10:48.233Z,41.83
2019-05-03T12:16:19.770Z,40.45
2019-05-03T12:19:16.588Z,42.04
2019-05-03T12:21:55.928Z,43.63
2019-05-03T12:24:46.711Z,43.63
2019-05-03T12:27:36.603Z,41.94
2019-05-03T12:30:27.678Z,39.97
2019-05-03T12:33:16.067Z,36.04
2019-05-03T12:39:35.644Z,35.67
2019-05-03T12:42:25.586Z,36.65
2019-05-03T12:45:15.240Z,36.46
2019-05-03T12:48:05.290Z,35.78
2019-05-03T12:50:54.572Z,37.20
2019-05-03T12:53:44.759Z,35.89
2019-05-03T12:56:35.814Z,37.58
2019-05-03T12:59:45.013Z,39.79
2019-05-03T13:08:45.682Z,34.91
2019-05-03T13:14:45.460Z,36.17
2019-05-03T13:20:31.586Z,37.99
2019-05-03T13:23:20.495Z,41.27
2019-05-03T13:26:09.422Z,41.34
2019-05-03T13:28:59.802Z,41.39
2019-05-03T13:31:58.389Z,41.63
2019-05-03T13:34:41.366Z,41.19
2019-05-03T13:37:30.023Z,43.75
2019-05-03T13:40:18.856Z,40.99
2019-05-03T13:43:07.770Z,41.76
2019-05-03T13:45:56.588Z,42.50
2019-05-03T13:48:48.899Z,42.75
2019-05-03T13:51:36.132Z,44.20
2019-05-03T13:54:25.497Z,44.21
2019-05-03T13:57:15.623Z,43.22
2019-05-03T14:00:25.529Z,43.70
2019-05-03T14:03:15.208Z,43.50
2019-05-03T14:06:08.661Z,44.44
2019-05-03T14:08:55.559Z,45.37
2019-05-03T14:11:44.906Z,45.18
2019-05-03T14:14:55.893Z,44.80
2019-05-03T14:17:44.691Z,45.02
2019-05-03T14:20:52.629Z,44.22
2019-05-03T14:24:00.533Z,43.04
2019-05-03T14:26:49.431Z,45.78
2019-05-03T14:29:38.286Z,44.71
2019-05-03T14:32:28.987Z,45.51
2019-05-03T14:35:17.759Z,47.02
2019-05-03T14:37:47.246Z,45.26
2019-05-03T14:40:36.095Z,46.30
2019-05-03T14:43:25.063Z,46.00
2019-05-03T14:46:16.298Z,47.53
2019-05-03T14:52:34.635Z,48.26
2019-05-03T14:55:42.412Z,49.24
2019-05-03T14:58:50.289Z,48.89
2019-05-03T15:04:48.609Z,50.68
2019-05-03T15:07:37.428Z,50.02
2019-05-03T15:10:18.955Z,50.00
2019-05-03T15:13:07.870Z,52.55
2019-05-03T15:15:56.799Z,58.08
2019-05-03T15:18:45.652Z,56.28
2019-05-03T15:21:34.688Z,55.38
2019-05-03T15:24:25.243Z,58.45
2019-05-03T15:27:14.107Z,55.43
2019-05-03T15:30:04.828Z,55.56
2019-05-03T15:32:59.772Z,56.06
2019-05-03T15:35:46.523Z,60.02
2019-05-03T15:38:34.867Z,59.97
2019-05-03T15:41:25.176Z,62.66
2019-05-03T15:44:34.191Z,67.63
2019-05-03T15:53:08.409Z,72.49
2019-05-03T15:55:57.356Z,74.55
2019-05-03T15:58:47.377Z,74.67
2019-05-03T16:01:36.252Z,74.98
2019-05-03T16:04:25.194Z,76.41
2019-05-03T16:07:14.427Z,77.57
2019-05-03T16:10:25.016Z,81.00
2019-05-03T16:13:08.160Z,78.81
2019-05-03T16:15:57.064Z,79.50
2019-05-03T16:18:45.938Z,80.20
2019-05-03T16:21:36.757Z,80.91
2019-05-03T16:24:25.363Z,80.31
2019-05-03T16:27:33.214Z,80.90
2019-05-03T16:30:41.236Z,78.65
2019-05-03T16:33:30.126Z,76.60
2019-05-03T16:36:19.068Z,76.14
2019-05-03T16:39:08.031Z,75.72
2019-05-03T16:41:56.897Z,76.92
2019-05-03T16:44:45.761Z,75.13
2019-05-03T16:47:35.486Z,74.87
2019-05-03T16:50:25.174Z,78.23
2019-05-03T16:56:29.292Z,75.47
2019-05-03T16:59:18.105Z,73.98
2019-05-03T17:02:07.033Z,74.02
2019-05-03T17:08:25.104Z,72.99
2019-05-03T17:11:09.512Z,73.34
2019-05-03T17:13:58.505Z,76.72
2019-05-03T17:16:47.309Z,76.96
2019-05-03T17:19:36.143Z,78.41
2019-05-03T17:22:25.295Z,77.69
2019-05-03T17:25:15.696Z,77.02
2019-05-03T17:28:05.090Z,78.38
2019-05-03T17:33:53.846Z,78.67
2019-05-03T17:36:41.898Z,78.92
2019-05-03T17:42:49.886Z,79.05
2019-05-03T17:45:57.782Z,80.30
2019-05-03T17:48:46.693Z,78.14
2019-05-03T17:51:55.493Z,78.28
2019-05-03T17:54:44.949Z,78.93
2019-05-03T17:57:52.841Z,80.44
2019-05-03T18:01:00.703Z,77.99
2019-05-03T18:12:35.029Z,78.28
2019-05-03T18:15:25.126Z,78.25
2019-05-03T18:18:15.764Z,77.77
2019-05-03T18:21:05.488Z,79.10
2019-05-03T18:23:54.660Z,80.00
2019-05-03T18:26:44.566Z,80.87
2019-05-03T18:29:34.923Z,81.86
2019-05-03T18:32:25.132Z,80.59
2019-05-03T18:35:15.290Z,80.66
2019-05-03T18:38:05.133Z,82.40
2019-05-03T18:40:55.262Z,83.14
2019-05-03T18:44:05.187Z,84.69
2019-05-03T18:49:54.961Z,82.48
2019-05-03T18:52:44.988Z,81.48
2019-05-03T18:55:34.429Z,81.91
2019-05-03T18:58:24.506Z,81.04
2019-05-03T19:07:28.234Z,83.65
2019-05-03T19:13:40.129Z,85.95
2019-05-03T19:19:57.441Z,85.72
2019-05-03T19:22:46.284Z,85.48
2019-05-03T19:25:45.929Z,84.09
2019-05-03T19:28:25.725Z,84.45
2019-05-03T19:31:14.691Z,84.88
2019-05-03T19:34:03.625Z,85.49
2019-05-03T19:36:54.600Z,87.51
2019-05-03T19:39:43.236Z,87.32
2019-05-03T19:42:32.098Z,86.60
2019-05-03T19:45:20.931Z,86.79
2019-05-03T19:48:09.856Z,87.62
2019-05-03T19:50:58.679Z,88.27
2019-05-03T19:59:57.726Z,89.14
2019-05-03T20:03:12.840Z,89.85
2019-05-03T20:09:16.947Z,89.01
2019-05-03T20:11:59.305Z,89.56
2019-05-03T20:14:48.150Z,89.87
2019-05-03T20:17:36.991Z,89.74
2019-05-03T20:20:25.912Z,89.57
2019-05-03T20:23:14.842Z,88.22
2019-05-03T20:26:05.034Z,88.45
2019-05-03T20:28:55.341Z,88.14
2019-05-03T20:31:44.894Z,87.38
2019-05-03T20:34:33.758Z,87.07
2019-05-03T20:37:22.567Z,88.27
2019-05-03T20:43:45.262Z,89.46
2019-05-03T20:46:54.941Z,89.83
2019-05-03T20:52:20.300Z,91.53
2019-05-03T20:55:09.147Z,93.67
2019-05-03T20:57:58.017Z,94.38
2019-05-03T21:00:46.826Z,94.60
2019-05-03T21:03:35.847Z,96.48
2019-05-03T21:06:35.178Z,97.86
2019-05-03T21:09:15.387Z,98.93
2019-05-03T21:11:56.773Z,100.00
2019-05-03T21:14:45.605Z,100.00
2019-05-03T21:17:55.494Z,100.00
2019-05-03T21:24:12.512Z,100.00
2019-05-03T21:27:01.326Z,100.00
2019-05-03T21:32:46.055Z,100.00
2019-05-03T21:35:41.586Z,100.00
2019-05-03T21:38:25.452Z,100.00
2019-05-03T21:41:15.687Z,100.00
2019-05-03T21:44:05.052Z,100.00
2019-05-03T21:46:55.447Z,100.00
2019-05-03T21:55:49.750Z,100.00
2019-05-03T21:58:38.602Z,100.00
2019-05-03T22:01:27.588Z,100.00
2019-05-03T22:04:16.454Z,100.00
2019-05-03T22:07:05.338Z,100.00
2019-05-03T22:09:54.501Z,100.00
2019-05-03T22:12:38.015Z,100.00
2019-05-03T22:21:37.906Z,100.00
2019-05-03T22:24:46.575Z,100.00
2019-05-03T22:27:55.380Z,100.00
2019-05-03T22:30:45.370Z,100.00
2019-05-03T22:33:34.862Z,100.00
2019-05-03T22:36:24.568Z,100.00
2019-05-03T22:39:15.823Z,100.00
2019-05-03T22:42:05.077Z,100.00
2019-05-03T22:44:55.338Z,100.00
2019-05-03T22:47:44.630Z,100.00
2019-05-03T22:50:35.035Z,100.00
2019-05-03T22:53:25.384Z,100.00
2019-05-03T22:56:14.589Z,100.00
2019-05-03T22:59:05.325Z,100.00
2019-05-03T23:01:54.608Z,100.00
2019-05-03T23:04:44.873Z,100.00
2019-05-03T23:07:37.442Z,100.00
2019-05-03T23:10:25.864Z,100.00
2019-05-03T23:13:07.684Z,100.00
2019-05-03T23:16:15.554Z,100.00
2019-05-03T23:19:05.571Z,100.00
2019-05-03T23:22:15.336Z,100.00
2019-05-03T23:28:35.608Z,100.00
2019-05-03T23:31:25.174Z,100.00
2019-05-03T23:34:15.043Z,100.00
2019-05-03T23:37:05.460Z,100.00
2019-05-03T23:39:55.136Z,100.00
2019-05-03T23:42:45.040Z,100.00
2019-05-03T23:45:34.782Z,100.00
2019-05-03T23:48:25.364Z,100.00
2019-05-03T23:51:35.093Z,100.00
2019-05-03T23:54:24.871Z,100.00
2019-05-03T23:57:14.460Z,100.00
